Time;durP1;ratioP1;P1;durP2;ratioP2;P2;SDS_P1;SDS_P2;PMS_P1;PMS_P2;Temp;Humidity;BMP_temperature;BMP_pressure;BME280_temperature;BME280_humidity;BME280_pressure;Samples;Min_cycle;Max_cycle;Signal;HPM_P1;HPM_P2
2024/03/06 00:00:25;;;;;;;10.85;6.35;;;;;;;5.24;100.00;96594.38;4996436;28;20038;-71
2024/03/06 00:02:51;;;;;;;9.63;6.45;;;;;;;5.29;100.00;96600.41;4993089;28;20046;-70
2024/03/06 00:05:16;;;;;;;11.50;6.63;;;;;;;5.30;100.00;96602.00;4980702;28;20048;-70
2024/03/06 00:07:42;;;;;;;8.02;6.05;;;;;;;5.34;100.00;96599.41;5001448;28;20107;-70
2024/03/06 00:10:08;;;;;;;8.30;5.68;;;;;;;5.44;100.00;96599.00;4995527;28;20037;-70
2024/03/06 00:12:33;;;;;;;12.18;6.75;;;;;;;5.48;100.00;96599.91;5001849;28;20144;-70
2024/03/06 00:14:59;;;;;;;10.10;6.20;;;;;;;5.48;100.00;96593.69;5001014;28;20056;-71
2024/03/06 00:17:24;;;;;;;8.95;5.70;;;;;;;5.43;100.00;96594.69;4991212;28;20043;-71
2024/03/06 00:19:50;;;;;;;10.02;6.72;;;;;;;5.15;100.00;96597.22;5007858;28;20389;-71
2024/03/06 00:22:16;;;;;;;9.40;6.55;;;;;;;4.94;100.00;96592.56;4996173;28;20042;-72
2024/03/06 00:24:42;;;;;;;9.45;6.53;;;;;;;4.83;100.00;96602.25;4983987;28;20422;-71
2024/03/06 00:27:07;;;;;;;10.80;7.35;;;;;;;4.85;100.00;96600.00;4976386;28;20042;-70
2024/03/06 00:29:33;;;;;;;11.23;7.60;;;;;;;4.86;100.00;96604.31;5007005;28;20041;-71
2024/03/06 00:31:58;;;;;;;12.60;7.60;;;;;;;5.03;100.00;96602.59;5024448;28;20044;-71
2024/03/06 00:34:24;;;;;;;13.95;7.03;;;;;;;5.09;100.00;96599.31;5016800;28;20053;-72
2024/03/06 00:36:49;;;;;;;11.30;7.68;;;;;;;5.11;100.00;96604.41;5019206;28;20049;-71
2024/03/06 00:39:15;;;;;;;10.43;6.95;;;;;;;5.10;100.00;96602.84;4997888;28;20420;-73
2024/03/06 00:41:41;;;;;;;11.70;7.20;;;;;;;5.09;100.00;96609.38;5000013;28;20116;-72
2024/03/06 00:44:07;;;;;;;12.20;7.88;;;;;;;4.98;100.00;96609.78;4985259;28;20038;-72
2024/03/06 00:46:33;;;;;;;12.13;7.38;;;;;;;5.09;100.00;96612.09;4995093;28;20069;-72
2024/03/06 00:48:58;;;;;;;9.90;7.53;;;;;;;5.12;100.00;96617.66;5031033;28;20089;-72
2024/03/06 00:51:24;;;;;;;12.65;7.97;;;;;;;5.10;100.00;96605.56;4994537;28;20046;-72
2024/03/06 00:53:49;;;;;;;11.65;8.10;;;;;;;5.04;100.00;96613.09;4999940;28;20038;-71
2024/03/06 00:56:14;;;;;;;11.25;7.65;;;;;;;4.97;100.00;96613.63;4995087;28;20112;-71
2024/03/06 00:58:40;;;;;;;11.63;7.75;;;;;;;5.00;100.00;96622.22;4999976;28;20046;-71
2024/03/06 01:01:05;;;;;;;15.35;8.23;;;;;;;4.94;100.00;96622.44;4996226;28;20140;-70
2024/03/06 01:03:31;;;;;;;12.60;8.40;;;;;;;4.88;100.00;96622.94;5000050;28;20053;-70
2024/03/06 01:05:56;;;;;;;14.32;9.27;;;;;;;4.83;100.00;96621.25;4992624;28;20050;-70
2024/03/06 01:08:24;;;;;;;14.73;8.85;;;;;;;4.90;100.00;96621.50;4995291;28;20048;-71
2024/03/06 01:10:50;;;;;;;15.90;9.63;;;;;;;5.01;100.00;96621.91;4984442;28;20680;-72
2024/03/06 01:13:16;;;;;;;14.52;9.15;;;;;;;5.08;100.00;96624.88;4990855;28;20045;-72
2024/03/06 01:15:41;;;;;;;13.35;8.52;;;;;;;5.02;100.00;96619.97;5008051;28;20112;-72
2024/03/06 01:18:07;;;;;;;14.32;9.60;;;;;;;5.15;100.00;96636.00;4978228;28;20045;-72
2024/03/06 01:20:32;;;;;;;13.85;8.98;;;;;;;5.24;100.00;96626.97;5004503;28;20038;-73
2024/03/06 01:22:58;;;;;;;13.63;9.55;;;;;;;5.13;100.00;96624.69;5014947;28;20041;-73
2024/03/06 01:25:24;;;;;;;14.95;9.65;;;;;;;4.95;100.00;96628.66;5016399;28;20369;-73
2024/03/06 01:27:49;;;;;;;15.65;10.65;;;;;;;5.03;100.00;96624.28;5017727;28;20080;-72
2024/03/06 01:30:15;;;;;;;16.23;10.63;;;;;;;5.05;100.00;96628.25;5014552;28;20043;-72
2024/03/06 01:32:40;;;;;;;15.73;10.02;;;;;;;5.14;100.00;96626.25;5030941;28;20384;-71
2024/03/06 01:35:06;;;;;;;18.35;10.43;;;;;;;5.28;100.00;96631.41;5014603;28;20041;-71
2024/03/06 01:37:33;;;;;;;12.27;9.43;;;;;;;5.24;100.00;96626.97;5019999;28;20049;-72
2024/03/06 01:39:58;;;;;;;13.38;10.15;;;;;;;5.35;100.00;96628.94;5035617;28;20045;-72
2024/03/06 01:42:23;;;;;;;18.98;11.00;;;;;;;5.32;100.00;96623.38;5018797;28;20041;-70
2024/03/06 01:44:49;;;;;;;13.30;9.65;;;;;;;5.33;100.00;96624.97;5022956;28;20050;-70
2024/03/06 01:47:14;;;;;;;13.10;10.10;;;;;;;5.04;100.00;96629.41;5015773;28;20539;-71
2024/03/06 01:49:41;;;;;;;16.67;10.38;;;;;;;4.98;100.00;96630.72;5019716;28;20487;-72
2024/03/06 01:52:10;;;;;;;15.85;10.75;;;;;;;5.09;100.00;96625.66;5014150;28;20037;-73
2024/03/06 01:54:36;;;;;;;18.25;12.05;;;;;;;5.22;100.00;96621.91;5019430;28;20547;-72
2024/03/06 01:57:02;;;;;;;17.95;10.82;;;;;;;5.34;100.00;96621.91;5018525;28;20056;-73
2024/03/06 01:59:28;;;;;;;19.60;11.43;;;;;;;5.36;100.00;96622.38;5017418;28;20079;-72
2024/03/06 02:01:54;;;;;;;15.15;11.10;;;;;;;5.35;100.00;96630.88;5018515;28;20132;-73
2024/03/06 02:04:20;;;;;;;21.45;11.40;;;;;;;5.38;100.00;96629.41;5014566;28;20430;-73
2024/03/06 02:06:46;;;;;;;15.40;11.50;;;;;;;4.96;100.00;96628.31;5019167;28;20048;-73
2024/03/06 02:09:13;;;;;;;17.13;12.02;;;;;;;4.79;100.00;96631.19;5014144;28;20107;-73
2024/03/06 02:11:40;;;;;;;18.73;12.52;;;;;;;4.60;100.00;96632.41;5019730;28;20473;-71
2024/03/06 02:14:10;;;;;;;19.50;12.45;;;;;;;4.45;100.00;96640.31;5014752;28;20110;-71
2024/03/06 02:16:36;;;;;;;16.10;11.85;;;;;;;4.46;100.00;96644.63;5019140;28;20052;-72
2024/03/06 02:19:02;;;;;;;10.85;7.68;;;;;;;4.75;100.00;96635.66;5032454;28;20072;-71
2024/03/06 02:21:27;;;;;;;11.55;7.70;;;;;;;4.75;100.00;96633.75;4997968;28;20635;-72
2024/03/06 02:23:54;;;;;;;8.23;5.00;;;;;;;4.44;100.00;96636.03;5002867;28;20077;-71
2024/03/06 02:26:20;;;;;;;7.53;5.22;;;;;;;4.27;100.00;96631.47;4998748;28;20124;-72
2024/03/06 02:28:51;;;;;;;5.93;4.40;;;;;;;4.19;100.00;96633.91;5004212;28;20049;-72
2024/03/06 02:31:16;;;;;;;6.95;5.30;;;;;;;3.70;100.00;96629.97;4997893;28;20141;-71
2024/03/06 02:33:44;;;;;;;6.85;5.43;;;;;;;3.63;100.00;96639.38;5002823;28;20045;-73
2024/03/06 02:36:10;;;;;;;6.80;4.97;;;;;;;3.50;100.00;96634.97;4998896;28;20037;-72
2024/03/06 02:38:36;;;;;;;8.48;5.40;;;;;;;3.52;100.00;96640.84;5001408;28;20049;-72
2024/03/06 02:41:02;;;;;;;9.07;5.80;;;;;;;3.29;100.00;96648.38;5001744;28;20124;-71
2024/03/06 02:43:27;;;;;;;8.02;5.82;;;;;;;3.18;100.00;96644.41;5016214;28;20136;-71
2024/03/06 02:45:53;;;;;;;9.48;6.03;;;;;;;3.12;100.00;96645.69;5002647;28;20472;-72
2024/03/06 02:48:18;;;;;;;10.95;7.18;;;;;;;3.03;100.00;96651.09;4997396;28;20045;-71
2024/03/06 02:50:43;;;;;;;9.13;6.22;;;;;;;3.02;100.00;96655.69;5005292;28;20046;-71
2024/03/06 02:53:09;;;;;;;10.18;6.45;;;;;;;3.05;100.00;96660.50;5021206;28;20124;-72
2024/03/06 02:55:34;;;;;;;9.82;6.43;;;;;;;3.09;100.00;96652.53;5003662;28;20140;-72
2024/03/06 02:58:03;;;;;;;9.85;6.57;;;;;;;3.07;100.00;96657.47;5004252;28;20053;-71
2024/03/06 03:00:28;;;;;;;9.37;6.17;;;;;;;3.01;100.00;96656.03;5002999;28;20116;-71
2024/03/06 03:02:54;;;;;;;10.60;7.05;;;;;;;3.00;100.00;96660.63;5002946;28;20133;-72
2024/03/06 03:05:19;;;;;;;11.18;6.38;;;;;;;3.01;100.00;96662.25;4997272;28;20085;-72
2024/03/06 03:07:45;;;;;;;11.95;7.07;;;;;;;3.09;100.00;96662.56;5002829;28;20081;-71
2024/03/06 03:10:10;;;;;;;11.35;6.82;;;;;;;3.01;100.00;96667.66;4991187;28;20042;-71
2024/03/06 03:12:38;;;;;;;9.48;6.43;;;;;;;2.99;100.00;96669.88;4995892;28;20039;-70
2024/03/06 03:15:04;;;;;;;9.73;6.28;;;;;;;3.08;100.00;96661.78;4978712;28;20053;-72
2024/03/06 03:17:30;;;;;;;10.85;6.25;;;;;;;3.05;100.00;96674.00;4997798;28;20096;-72
2024/03/06 03:19:55;;;;;;;10.27;6.03;;;;;;;3.03;100.00;96668.13;5002090;28;20042;-69
2024/03/06 03:22:21;;;;;;;10.25;6.43;;;;;;;3.02;100.00;96671.16;5012852;28;20077;-71
2024/03/06 03:24:47;;;;;;;11.65;6.40;;;;;;;2.98;100.00;96664.78;4993543;28;20061;-71
2024/03/06 03:27:13;;;;;;;10.95;6.60;;;;;;;3.11;100.00;96666.53;4977784;28;20042;-72
2024/03/06 03:29:38;;;;;;;10.45;6.47;;;;;;;3.15;100.00;96661.28;4980371;28;20054;-71
2024/03/06 03:32:04;;;;;;;11.00;6.93;;;;;;;3.16;100.00;96665.59;4976370;28;20047;-71
2024/03/06 03:34:30;;;;;;;11.32;7.40;;;;;;;3.12;100.00;96670.06;4981432;28;20121;-72
2024/03/06 03:36:56;;;;;;;12.65;7.07;;;;;;;3.05;100.00;96663.19;4991548;28;20137;-72
2024/03/06 03:39:24;;;;;;;9.43;6.75;;;;;;;3.01;100.00;96664.94;4995594;28;20097;-72
2024/03/06 03:41:50;;;;;;;11.25;7.18;;;;;;;3.03;100.00;96668.13;4993959;28;20516;-72
2024/03/06 03:44:16;;;;;;;10.85;7.00;;;;;;;3.05;100.00;96670.53;4997367;28;20046;-72
2024/03/06 03:46:42;;;;;;;12.07;7.95;;;;;;;2.99;100.00;96677.19;5002264;28;20089;-72
2024/03/06 03:49:08;;;;;;;10.50;6.85;;;;;;;2.96;100.00;96680.56;4995521;28;20042;-72
2024/03/06 03:51:35;;;;;;;11.57;7.53;;;;;;;2.95;100.00;96681.66;5000154;28;20064;-73
2024/03/06 03:54:00;;;;;;;11.95;7.60;;;;;;;2.94;100.00;96685.50;5001321;28;20100;-73
2024/03/06 03:56:26;;;;;;;11.38;7.13;;;;;;;2.99;100.00;96693.41;5017271;28;20045;-72
2024/03/06 03:58:51;;;;;;;8.45;5.50;;;;;;;3.22;100.00;96691.38;5020341;28;20052;-72
2024/03/06 04:01:17;;;;;;;7.80;4.38;;;;;;;3.37;100.00;96695.53;5017830;28;20033;-72
2024/03/06 04:03:44;;;;;;;9.98;5.18;;;;;;;3.25;100.00;96694.22;5013276;28;20142;-72
2024/03/06 04:06:10;;;;;;;8.35;5.43;;;;;;;3.39;100.00;96687.88;5005177;28;20688;-73
2024/03/06 04:08:37;;;;;;;8.65;5.05;;;;;;;3.56;100.00;96689.75;5000846;28;20045;-73
2024/03/06 04:11:03;;;;;;;6.80;4.35;;;;;;;3.53;100.00;96699.31;4999290;28;20052;-74
2024/03/06 04:13:35;;;;;;;6.10;4.20;;;;;;;3.64;100.00;96697.88;5001610;28;20516;-73
2024/03/06 04:16:02;;;;;;;7.35;4.55;;;;;;;3.74;100.00;96701.34;5000811;28;20088;-73
2024/03/06 04:18:28;;;;;;;5.15;3.72;;;;;;;3.73;100.00;96702.47;5005526;28;20045;-73
2024/03/06 04:20:54;;;;;;;5.47;3.63;;;;;;;3.78;100.00;96700.41;5015013;28;20041;-72
2024/03/06 04:23:19;;;;;;;5.70;3.55;;;;;;;3.77;100.00;96706.13;5015586;28;20045;-72
2024/03/06 04:25:45;;;;;;;5.65;3.10;;;;;;;3.74;100.00;96704.84;5020617;28;20140;-72
2024/03/06 04:28:11;;;;;;;5.15;3.60;;;;;;;3.78;100.00;96713.13;5015641;28;20564;-72
2024/03/06 04:30:36;;;;;;;6.70;3.45;;;;;;;3.78;100.00;96713.13;5024790;28;20095;-72
2024/03/06 04:33:02;;;;;;;5.05;3.75;;;;;;;3.89;100.00;96706.25;5023168;28;20136;-72
2024/03/06 04:35:28;;;;;;;4.65;3.03;;;;;;;3.90;100.00;96715.19;5022139;28;20054;-71
2024/03/06 04:37:54;;;;;;;6.75;3.67;;;;;;;3.77;100.00;96715.03;4986838;28;20489;-71
2024/03/06 04:40:22;;;;;;;4.28;3.30;;;;;;;3.89;100.00;96721.72;4977470;28;20042;-71
2024/03/06 04:42:47;;;;;;;5.05;3.78;;;;;;;3.81;100.00;96716.00;4987648;28;20038;-71
2024/03/06 04:45:15;;;;;;;6.50;3.58;;;;;;;3.81;100.00;96710.56;4976186;28;20543;-71
2024/03/06 04:47:41;;;;;;;5.60;3.25;;;;;;;3.77;100.00;96716.97;4980795;28;20190;-71
2024/03/06 04:50:10;;;;;;;5.25;3.45;;;;;;;3.82;100.00;96714.88;4975297;28;20232;-72
2024/03/06 04:52:37;;;;;;;5.88;3.95;;;;;;;3.80;100.00;96716.34;4980498;28;20137;-72
2024/03/06 04:55:03;;;;;;;5.30;3.92;;;;;;;3.85;100.00;96724.28;4977619;28;20054;-72
2024/03/06 04:57:28;;;;;;;6.38;4.07;;;;;;;3.76;100.00;96715.38;5013919;28;20051;-72
2024/03/06 04:59:54;;;;;;;6.65;4.50;;;;;;;3.82;100.00;96723.00;5020646;28;20045;-71
2024/03/06 05:02:19;;;;;;;7.40;4.57;;;;;;;3.81;100.00;96728.75;5015744;28;20049;-73
2024/03/06 05:04:46;;;;;;;6.80;4.60;;;;;;;3.78;100.00;96732.91;5020110;28;20053;-72
2024/03/06 05:07:13;;;;;;;6.85;4.90;;;;;;;3.74;100.00;96731.94;5015519;28;20736;-71
2024/03/06 05:09:40;;;;;;;6.93;4.75;;;;;;;3.75;100.00;96730.84;5019163;28;20140;-72
2024/03/06 05:12:06;;;;;;;6.78;4.75;;;;;;;3.72;100.00;96738.81;5006928;28;20045;-71
2024/03/06 05:14:31;;;;;;;7.72;5.30;;;;;;;3.75;100.00;96740.88;5014063;28;20475;-71
2024/03/06 05:16:57;;;;;;;7.68;5.20;;;;;;;3.69;100.00;96742.97;5005712;28;20057;-71
2024/03/06 05:19:22;;;;;;;8.13;4.93;;;;;;;3.69;100.00;96744.84;4994754;28;20662;-71
2024/03/06 05:21:48;;;;;;;9.43;5.28;;;;;;;3.69;100.00;96747.56;4999509;28;20065;-71
2024/03/06 05:24:13;;;;;;;8.48;5.53;;;;;;;3.75;100.00;96747.09;4995676;28;20050;-70
2024/03/06 05:26:39;;;;;;;10.48;5.50;;;;;;;3.89;100.00;96751.50;5000089;28;20061;-71
2024/03/06 05:29:04;;;;;;;13.10;6.28;;;;;;;3.88;100.00;96752.66;4995063;28;20061;-71
2024/03/06 05:31:29;;;;;;;11.02;5.50;;;;;;;3.84;100.00;96752.50;4994424;28;20066;-72
2024/03/06 05:33:55;;;;;;;6.15;4.13;;;;;;;3.80;100.00;96751.56;4976675;28;20493;-71
2024/03/06 05:36:20;;;;;;;8.18;5.22;;;;;;;3.67;100.00;96749.81;4995123;28;20064;-71
2024/03/06 05:38:47;;;;;;;6.60;4.43;;;;;;;3.61;100.00;96749.16;5013894;28;20042;-71
2024/03/06 05:41:13;;;;;;;7.03;4.60;;;;;;;3.65;100.00;96752.81;4996192;28;20073;-72
2024/03/06 05:43:38;;;;;;;6.78;4.40;;;;;;;3.68;100.00;96752.19;4999668;28;20054;-73
2024/03/06 05:46:04;;;;;;;7.70;4.75;;;;;;;3.70;100.00;96755.38;4995810;28;20438;-73
2024/03/06 05:48:29;;;;;;;6.82;4.03;;;;;;;3.77;100.00;96765.72;5000488;28;20049;-73
2024/03/06 05:50:55;;;;;;;6.38;4.20;;;;;;;3.81;100.00;96767.47;4999275;28;20053;-73
2024/03/06 05:53:20;;;;;;;6.50;4.20;;;;;;;3.79;100.00;96766.19;4994945;28;20838;-72
2024/03/06 05:55:46;;;;;;;8.23;4.55;;;;;;;3.73;100.00;96767.50;5001230;28;20049;-72
2024/03/06 05:58:11;;;;;;;7.85;4.63;;;;;;;3.69;100.00;96771.94;4998903;28;20407;-73
2024/03/06 06:00:37;;;;;;;9.20;5.65;;;;;;;3.90;100.00;96780.22;5004306;28;20037;-72
2024/03/06 06:03:03;;;;;;;7.88;5.50;;;;;;;4.01;100.00;96776.84;5000182;28;20072;-72
2024/03/06 06:05:28;;;;;;;6.97;4.95;;;;;;;3.90;100.00;96781.00;5003422;28;20489;-72
2024/03/06 06:07:54;;;;;;;5.82;4.30;;;;;;;3.94;100.00;96781.16;5003515;28;20049;-72
2024/03/06 06:10:19;;;;;;;6.45;4.40;;;;;;;3.97;100.00;96772.41;4999849;28;20069;-73
2024/03/06 06:12:45;;;;;;;6.28;4.50;;;;;;;4.09;100.00;96787.97;5003051;28;20042;-71
2024/03/06 06:15:10;;;;;;;6.63;4.28;;;;;;;4.01;100.00;96787.66;4996006;28;20038;-71
2024/03/06 06:17:37;;;;;;;6.32;4.68;;;;;;;3.91;100.00;96790.75;5010139;28;20042;-71
2024/03/06 06:20:09;;;;;;;6.90;4.80;;;;;;;3.96;100.00;96787.88;4996186;28;20054;-71
2024/03/06 06:22:36;;;;;;;7.03;4.47;;;;;;;3.79;100.00;96794.09;4983427;28;20515;-71
2024/03/06 06:25:03;;;;;;;8.10;5.38;;;;;;;3.72;100.00;96793.78;4980470;28;20158;-74
2024/03/06 06:27:29;;;;;;;8.20;4.93;;;;;;;3.82;100.00;96800.78;4996671;28;20104;-72
2024/03/06 06:29:55;;;;;;;8.52;5.40;;;;;;;3.97;100.00;96797.56;4994767;28;20440;-72
2024/03/06 06:32:21;;;;;;;7.68;5.43;;;;;;;3.89;100.00;96803.81;4978238;28;20076;-73
2024/03/06 06:34:46;;;;;;;5.97;4.40;;;;;;;3.91;100.00;96796.16;4989688;28;20125;-72
2024/03/06 06:37:11;;;;;;;7.80;5.03;;;;;;;3.79;100.00;96807.63;4996279;28;20074;-73
2024/03/06 06:39:37;;;;;;;9.40;5.28;;;;;;;3.77;100.00;96801.75;5003401;28;20048;-73
2024/03/06 06:42:03;;;;;;;6.90;5.00;;;;;;;3.77;100.00;96809.88;4998713;28;20057;-70
2024/03/06 06:44:28;;;;;;;8.10;5.20;;;;;;;3.88;100.00;96807.63;5034118;28;20056;-72
2024/03/06 06:46:53;;;;;;;9.55;5.65;;;;;;;3.99;100.00;96808.09;5002710;28;20085;-73
2024/03/06 06:49:20;;;;;;;7.07;4.97;;;;;;;4.01;100.00;96814.78;4997423;28;20149;-72
2024/03/06 06:51:45;;;;;;;7.93;5.97;;;;;;;4.07;100.00;96812.72;5002007;28;20716;-72
2024/03/06 06:54:10;;;;;;;7.75;5.53;;;;;;;4.28;100.00;96814.75;4998391;28;20046;-73
2024/03/06 06:56:36;;;;;;;8.52;5.60;;;;;;;4.16;100.00;96816.22;5002211;28;20042;-72
2024/03/06 06:59:02;;;;;;;8.07;5.60;;;;;;;4.15;100.00;96800.25;4992538;28;20050;-72
2024/03/06 07:01:27;;;;;;;7.40;5.72;;;;;;;4.16;100.00;96809.97;5000831;28;20754;-73
2024/03/06 07:03:53;;;;;;;7.40;5.32;;;;;;;4.08;100.00;96806.16;5018396;28;20041;-72
2024/03/06 07:06:18;;;;;;;8.18;5.78;;;;;;;3.95;100.00;96810.66;4988604;28;20075;-72
2024/03/06 07:08:43;;;;;;;9.23;5.15;;;;;;;3.78;100.00;96818.78;4993980;28;20038;-72
2024/03/06 07:11:10;;;;;;;11.15;5.82;;;;;;;3.73;100.00;96821.69;4997957;28;20049;-73
2024/03/06 07:13:36;;;;;;;8.13;6.22;;;;;;;3.88;100.00;96820.38;5002173;28;20464;-71
2024/03/06 07:16:04;;;;;;;8.98;5.78;;;;;;;4.01;100.00;96822.91;5009981;28;20046;-72
2024/03/06 07:18:29;;;;;;;7.05;5.07;;;;;;;4.07;100.00;96825.47;5005599;28;20046;-71
2024/03/06 07:20:55;;;;;;;8.02;5.38;;;;;;;4.06;100.00;96821.97;5008913;28;20049;-71
2024/03/06 07:23:20;;;;;;;6.70;5.22;;;;;;;3.81;100.00;96818.94;4999931;28;20056;-71
2024/03/06 07:25:46;;;;;;;8.02;5.20;;;;;;;3.92;100.00;96824.84;5010098;28;20393;-70
2024/03/06 07:28:11;;;;;;;8.90;6.13;;;;;;;3.95;100.00;96831.53;4997900;28;20046;-72
2024/03/06 07:30:37;;;;;;;9.63;6.38;;;;;;;3.98;100.00;96833.59;5003176;28;20128;-71
2024/03/06 07:33:02;;;;;;;9.45;6.20;;;;;;;4.05;100.00;96841.25;5000591;28;20069;-69
2024/03/06 07:35:28;;;;;;;9.27;6.30;;;;;;;3.83;100.00;96833.00;5003304;28;20540;-72
2024/03/06 07:37:53;;;;;;;8.27;5.90;;;;;;;3.77;100.00;96839.66;5002365;28;20056;-73
2024/03/06 07:40:19;;;;;;;11.65;6.85;;;;;;;3.85;100.00;96842.69;4994918;28;20509;-72
2024/03/06 07:42:44;;;;;;;8.68;6.28;;;;;;;3.90;100.00;96837.13;4995269;28;20054;-72
2024/03/06 07:45:10;;;;;;;8.13;5.75;;;;;;;3.73;100.00;96838.72;4996731;28;20046;-72
2024/03/06 07:47:37;;;;;;;8.68;6.13;;;;;;;3.69;100.00;96843.19;5003684;28;20118;-72
2024/03/06 07:50:06;;;;;;;11.35;6.78;;;;;;;3.76;100.00;96839.97;5000120;28;20049;-73
2024/03/06 07:52:31;;;;;;;10.30;6.63;;;;;;;3.76;100.00;96848.13;5005100;28;20497;-72
2024/03/06 07:54:57;;;;;;;10.77;7.00;;;;;;;3.91;100.00;96849.56;5001017;28;20200;-72
2024/03/06 07:57:22;;;;;;;16.45;8.65;;;;;;;4.03;100.00;96852.41;4996987;28;20046;-72
2024/03/06 07:59:49;;;;;;;11.13;7.63;;;;;;;3.98;100.00;96855.28;5003382;28;20136;-72
2024/03/06 08:02:14;;;;;;;11.25;6.97;;;;;;;3.87;100.00;96852.13;4993738;28;20050;-72
2024/03/06 08:04:40;;;;;;;10.73;6.93;;;;;;;3.97;100.00;96853.69;4995809;28;20049;-72
2024/03/06 08:07:05;;;;;;;10.25;7.03;;;;;;;3.81;100.00;96858.78;4995723;28;20144;-72
2024/03/06 08:09:31;;;;;;;11.57;7.47;;;;;;;3.75;100.00;96860.06;5001485;28;20415;-72
2024/03/06 08:11:56;;;;;;;10.13;7.13;;;;;;;3.82;100.00;96857.69;5000789;28;20081;-70
2024/03/06 08:14:23;;;;;;;9.98;6.63;;;;;;;3.95;100.00;96866.78;4996043;28;20595;-70
2024/03/06 08:16:49;;;;;;;10.10;7.03;;;;;;;4.03;100.00;96865.97;4999902;28;20080;-72
2024/03/06 08:19:14;;;;;;;11.93;7.40;;;;;;;4.00;100.00;96863.91;4995229;28;20414;-73
2024/03/06 08:21:40;;;;;;;10.90;6.57;;;;;;;3.96;100.00;96857.50;5002193;28;20053;-70
2024/03/06 08:24:06;;;;;;;9.43;6.25;;;;;;;3.79;100.00;96855.59;4994965;28;20053;-70
2024/03/06 08:26:31;;;;;;;10.57;6.95;;;;;;;3.70;100.00;96871.06;4992385;28;20576;-72
2024/03/06 08:28:57;;;;;;;11.00;7.05;;;;;;;3.72;100.00;96872.34;4999466;28;20033;-73
2024/03/06 08:31:22;;;;;;;9.85;6.82;;;;;;;3.67;100.00;96864.34;4977540;28;20804;-71
2024/03/06 08:33:48;;;;;;;11.38;6.70;;;;;;;3.76;100.00;96869.78;5009718;28;20069;-71
2024/03/06 08:36:16;;;;;;;10.15;6.53;;;;;;;3.80;100.00;96868.06;4992566;28;20596;-72
2024/03/06 08:38:41;;;;;;;9.68;6.90;;;;;;;3.67;100.00;96869.78;4998879;28;20726;-72
2024/03/06 08:41:07;;;;;;;11.43;7.13;;;;;;;3.80;100.00;96871.56;5009980;28;20065;-71
2024/03/06 08:43:33;;;;;;;11.00;6.57;;;;;;;3.72;100.00;96877.75;5021368;28;20050;-72
2024/03/06 08:45:58;;;;;;;10.90;7.25;;;;;;;3.58;100.00;96874.38;5002888;28;20076;-72
2024/03/06 08:48:24;;;;;;;9.75;6.55;;;;;;;3.69;100.00;96872.16;5000181;28;20572;-74
2024/03/06 08:50:50;;;;;;;9.38;6.82;;;;;;;3.51;100.00;96882.19;5003688;28;20034;-73
2024/03/06 08:53:16;;;;;;;11.65;8.88;;;;;;;3.65;100.00;96880.13;4994919;28;20803;-72
2024/03/06 08:55:42;;;;;;;10.45;6.80;;;;;;;3.58;100.00;96885.22;4999712;28;20103;-72
2024/03/06 08:58:08;;;;;;;12.68;7.10;;;;;;;3.50;100.00;96883.31;4995080;28;20054;-72
2024/03/06 09:00:34;;;;;;;10.23;6.55;;;;;;;3.54;100.00;96886.97;5000935;28;20061;-72
2024/03/06 09:03:00;;;;;;;9.82;6.40;;;;;;;3.67;100.00;96891.44;5000425;28;20076;-72
2024/03/06 09:05:26;;;;;;;9.82;6.35;;;;;;;3.67;100.00;96893.38;4992718;28;20150;-73
2024/03/06 09:07:51;;;;;;;9.80;6.30;;;;;;;3.72;100.00;96899.41;4996250;28;20087;-72
2024/03/06 09:10:19;;;;;;;9.77;6.25;;;;;;;3.68;100.00;96897.69;4993515;28;20077;-72
2024/03/06 09:12:45;;;;;;;9.35;6.47;;;;;;;3.66;100.00;96891.78;5002580;28;20056;-72
2024/03/06 09:15:11;;;;;;;9.70;6.07;;;;;;;3.80;100.00;96893.22;4982855;28;20097;-73
2024/03/06 09:17:37;;;;;;;9.75;6.25;;;;;;;3.87;100.00;96892.75;4981686;28;20050;-72
2024/03/06 09:20:09;;;;;;;10.80;7.05;;;;;;;3.97;100.00;96888.94;4994092;28;20069;-71
2024/03/06 09:22:36;;;;;;;15.52;6.30;;;;;;;3.95;100.00;96889.25;5001324;28;20099;-72
2024/03/06 09:25:02;;;;;;;10.13;6.70;;;;;;;4.04;100.00;96885.75;4999855;28;20567;-72
2024/03/06 09:27:27;;;;;;;9.98;6.53;;;;;;;3.97;100.00;96899.78;4997284;28;20133;-72
2024/03/06 09:29:53;;;;;;;8.95;6.15;;;;;;;3.83;100.00;96898.03;4998462;28;20144;-72
2024/03/06 09:32:19;;;;;;;11.30;6.60;;;;;;;3.76;100.00;96911.25;4994792;28;20389;-72
2024/03/06 09:34:44;;;;;;;11.60;6.47;;;;;;;4.02;100.00;96922.09;4993265;28;20082;-71
2024/03/06 09:37:10;;;;;;;8.57;6.15;;;;;;;4.09;100.00;96904.53;4993226;28;20077;-72
2024/03/06 09:39:35;;;;;;;11.48;6.13;;;;;;;4.07;100.00;96906.78;4999339;28;20042;-72
2024/03/06 09:42:01;;;;;;;9.23;6.05;;;;;;;4.09;100.00;96909.97;4999242;28;20104;-72
2024/03/06 09:44:27;;;;;;;8.38;5.95;;;;;;;3.98;100.00;96910.28;5003842;28;20042;-71
2024/03/06 09:46:54;;;;;;;9.43;6.50;;;;;;;3.85;100.00;96908.50;4999532;28;20150;-72
2024/03/06 09:49:21;;;;;;;9.82;6.38;;;;;;;3.98;100.00;96918.44;4994440;28;20036;-72
2024/03/06 09:51:49;;;;;;;9.30;6.25;;;;;;;4.01;100.00;96920.47;4999205;28;20056;-71
2024/03/06 09:54:16;;;;;;;8.43;5.88;;;;;;;4.12;100.00;96912.03;4994418;28;20124;-71
2024/03/06 09:56:43;;;;;;;7.90;5.03;;;;;;;4.21;100.00;96915.53;4999367;28;20049;-71
2024/03/06 09:59:08;;;;;;;8.25;5.65;;;;;;;3.83;100.00;96917.00;4993811;28;20045;-71
2024/03/06 10:01:40;;;;;;;9.30;6.20;;;;;;;3.82;100.00;96920.78;5002224;28;20045;-72
2024/03/06 10:04:34;;;;;;;8.45;5.60;;;;;;;3.88;100.00;96915.22;5008978;28;20654;-72
2024/03/06 10:07:00;;;;;;;9.20;6.70;;;;;;;3.89;100.00;96925.75;4995921;28;20141;-71
2024/03/06 10:09:27;;;;;;;8.63;6.32;;;;;;;3.81;100.00;96921.91;4993042;28;20104;-72
2024/03/06 10:11:53;;;;;;;10.75;6.95;;;;;;;3.87;100.00;96921.75;4999009;28;20056;-72
2024/03/06 10:14:19;;;;;;;11.80;7.03;;;;;;;4.08;100.00;96922.72;4993570;28;20132;-72
2024/03/06 10:16:58;;;;;;;10.18;6.70;;;;;;;4.05;100.00;96928.78;4999639;28;20129;-72
2024/03/06 10:19:25;;;;;;;9.82;6.57;;;;;;;4.12;100.00;96926.38;4989583;28;20045;-72
2024/03/06 10:21:51;;;;;;;11.07;6.45;;;;;;;3.98;100.00;96926.56;5007238;28;20057;-73
2024/03/06 10:24:27;;;;;;;9.02;6.85;;;;;;;3.94;100.00;96930.19;5005077;28;20069;-71
2024/03/06 10:26:56;;;;;;;10.13;6.32;;;;;;;3.92;100.00;96922.38;5027572;28;20069;-72
2024/03/06 10:29:24;;;;;;;10.33;7.27;;;;;;;4.08;100.00;96930.84;5023077;28;20523;-73
2024/03/06 10:31:57;;;;;;;7.60;6.03;;;;;;;4.16;100.00;96930.06;5019126;28;20136;-72
2024/03/06 10:34:25;;;;;;;9.07;6.13;;;;;;;4.15;100.00;96931.16;5013754;28;20128;-72
2024/03/06 10:36:58;;;;;;;8.07;5.85;;;;;;;4.29;100.00;96930.22;5019350;28;20617;-72
2024/03/06 10:39:24;;;;;;;8.45;5.97;;;;;;;4.27;100.00;96927.84;5013023;28;20140;-72
2024/03/06 10:41:56;;;;;;;12.30;6.13;;;;;;;4.29;100.00;96935.66;5019123;28;20504;-71
2024/03/06 10:44:25;;;;;;;8.30;5.53;;;;;;;4.24;100.00;96927.69;5017099;28;20061;-71
2024/03/06 10:47:01;;;;;;;12.23;6.72;;;;;;;4.13;100.00;96933.41;5023413;28;20045;-72
2024/03/06 10:49:27;;;;;;;9.15;6.50;;;;;;;4.16;100.00;96934.66;5009638;28;20065;-71
2024/03/06 10:51:57;;;;;;;11.50;6.25;;;;;;;4.25;100.00;96935.50;5022441;28;20455;-72
2024/03/06 10:54:26;;;;;;;9.45;6.82;;;;;;;4.53;100.00;96933.22;5008984;28;20076;-70
2024/03/06 10:56:53;;;;;;;9.43;6.80;;;;;;;4.55;100.00;96927.47;5022691;28;20111;-71
2024/03/06 10:59:20;;;;;;;9.52;6.28;;;;;;;4.50;100.00;96936.59;5004565;28;20618;-72
2024/03/06 11:01:47;;;;;;;11.30;6.35;;;;;;;4.79;100.00;96937.81;4991010;28;20054;-72
2024/03/06 11:04:15;;;;;;;8.50;5.50;;;;;;;4.74;100.00;96941.50;4995823;28;20064;-72
2024/03/06 11:06:40;;;;;;;12.82;6.68;;;;;;;4.62;100.00;96944.06;4996498;28;20050;-72
2024/03/06 11:09:12;;;;;;;11.18;7.32;;;;;;;4.76;100.00;96943.88;4999340;28;20041;-72
2024/03/06 11:11:54;;;;;;;9.40;6.40;;;;;;;4.59;100.00;96939.28;5002804;28;20049;-72
2024/03/06 11:14:23;;;;;;;9.10;5.65;;;;;;;4.71;100.00;96935.91;4994622;28;20050;-71
2024/03/06 11:17:07;;;;;;;8.10;6.05;;;;;;;4.97;100.00;96928.50;4995819;28;20042;-71
2024/03/06 11:19:59;;;;;;;8.40;5.43;;;;;;;4.95;100.00;96928.03;4994333;28;20069;-70
2024/03/06 11:22:58;;;;;;;7.60;5.32;;;;;;;5.06;100.00;96939.34;4970375;28;20053;-71
2024/03/06 11:25:45;;;;;;;8.32;5.47;;;;;;;5.33;100.00;96935.41;5028909;22;20476;-71